sensor_id;sensor_type;location;lat;lon;timestamp;temperature;humidity
16625;DHT22;8426;48.496;9.098;2023-03-01T00:02:41;-3.10;99.90
16625;DHT22;8426;48.496;9.098;2023-03-01T00:07:46;-3.20;99.90
16625;DHT22;8426;48.496;9.098;2023-03-01T00:12:50;-3.10;99.90
16625;DHT22;8426;48.496;9.098;2023-03-01T00:17:53;-3.10;99.90
16625;DHT22;8426;48.496;9.098;2023-03-01T00:22:58;-3.20;99.90
16625;DHT22;8426;48.496;9.098;2023-03-01T00:28:01;-3.40;99.90
16625;DHT22;8426;48.496;9.098;2023-03-01T00:33:07;-3.40;99.90
16625;DHT22;8426;48.496;9.098;2023-03-01T00:38:12;-3.40;99.90
16625;DHT22;8426;48.496;9.098;2023-03-01T00:43:17;-3.40;99.90
16625;DHT22;8426;48.496;9.098;2023-03-01T00:48:20;-3.30;99.90
16625;DHT22;8426;48.496;9.098;2023-03-01T00:53:25;-3.20;99.90
16625;DHT22;8426;48.496;9.098;2023-03-01T00:58:29;-3.30;99.90
16625;DHT22;8426;48.496;9.098;2023-03-01T01:03:32;-3.40;99.90
16625;DHT22;8426;48.496;9.098;2023-03-01T01:08:37;-3.40;99.90
16625;DHT22;8426;48.496;9.098;2023-03-01T01:13:41;-3.50;99.90
16625;DHT22;8426;48.496;9.098;2023-03-01T01:18:46;-3.60;99.90
16625;DHT22;8426;48.496;9.098;2023-03-01T01:23:51;-3.70;99.90
16625;DHT22;8426;48.496;9.098;2023-03-01T01:28:55;-3.80;99.90
16625;DHT22;8426;48.496;9.098;2023-03-01T01:33:59;-3.90;99.90
16625;DHT22;8426;48.496;9.098;2023-03-01T01:39:04;-3.80;99.90
16625;DHT22;8426;48.496;9.098;2023-03-01T01:44:14;-3.70;99.90
16625;DHT22;8426;48.496;9.098;2023-03-01T01:49:24;-3.40;99.90
16625;DHT22;8426;48.496;9.098;2023-03-01T01:54:31;-3.10;99.90
16625;DHT22;8426;48.496;9.098;2023-03-01T01:59:41;-2.90;99.90
16625;DHT22;8426;48.496;9.098;2023-03-01T02:04:47;-2.70;99.90
16625;DHT22;8426;48.496;9.098;2023-03-01T02:09:52;-2.70;99.90
16625;DHT22;8426;48.496;9.098;2023-03-01T02:14:56;-2.60;99.90
16625;DHT22;8426;48.496;9.098;2023-03-01T02:20:10;-2.50;99.90
16625;DHT22;8426;48.496;9.098;2023-03-01T02:25:39;-2.40;99.90
16625;DHT22;8426;48.496;9.098;2023-03-01T02:30:50;-2.30;99.90
16625;DHT22;8426;48.496;9.098;2023-03-01T02:36:17;-2.30;99.90
16625;DHT22;8426;48.496;9.098;2023-03-01T02:41:22;-2.30;99.90
16625;DHT22;8426;48.496;9.098;2023-03-01T02:46:31;-2.20;99.90
16625;DHT22;8426;48.496;9.098;2023-03-01T02:51:45;-2.10;99.90
16625;DHT22;8426;48.496;9.098;2023-03-01T02:56:51;-2.10;99.90
16625;DHT22;8426;48.496;9.098;2023-03-01T03:01:56;-2.00;99.90
16625;DHT22;8426;48.496;9.098;2023-03-01T03:06:59;-2.00;99.90
16625;DHT22;8426;48.496;9.098;2023-03-01T03:12:03;-2.00;99.90
16625;DHT22;8426;48.496;9.098;2023-03-01T03:17:09;-1.90;99.90
16625;DHT22;8426;48.496;9.098;2023-03-01T03:22:13;-1.90;99.90
16625;DHT22;8426;48.496;9.098;2023-03-01T03:27:16;-1.90;99.90
16625;DHT22;8426;48.496;9.098;2023-03-01T03:32:25;-1.90;99.90
16625;DHT22;8426;48.496;9.098;2023-03-01T03:37:28;-1.80;99.90
16625;DHT22;8426;48.496;9.098;2023-03-01T03:42:49;-1.80;99.90
16625;DHT22;8426;48.496;9.098;2023-03-01T03:47:54;-1.80;99.90
16625;DHT22;8426;48.496;9.098;2023-03-01T03:53:00;-1.80;99.90
16625;DHT22;8426;48.496;9.098;2023-03-01T03:58:03;-1.80;99.90
16625;DHT22;8426;48.496;9.098;2023-03-01T04:03:11;-1.70;99.90
16625;DHT22;8426;48.496;9.098;2023-03-01T04:08:16;-1.70;99.90
16625;DHT22;8426;48.496;9.098;2023-03-01T04:13:22;-1.80;99.90
16625;DHT22;8426;48.496;9.098;2023-03-01T04:18:28;-1.70;99.90
16625;DHT22;8426;48.496;9.098;2023-03-01T04:23:32;-1.70;99.90
16625;DHT22;8426;48.496;9.098;2023-03-01T04:28:38;-1.70;99.90
16625;DHT22;8426;48.496;9.098;2023-03-01T04:33:47;-1.70;99.90
16625;DHT22;8426;48.496;9.098;2023-03-01T04:38:53;-1.70;99.90
16625;DHT22;8426;48.496;9.098;2023-03-01T04:43:57;-1.70;99.90
16625;DHT22;8426;48.496;9.098;2023-03-01T04:49:03;-1.70;99.90
16625;DHT22;8426;48.496;9.098;2023-03-01T04:54:08;-1.60;99.90
16625;DHT22;8426;48.496;9.098;2023-03-01T04:59:12;-1.60;99.90
16625;DHT22;8426;48.496;9.098;2023-03-01T05:04:17;-1.60;99.90
16625;DHT22;8426;48.496;9.098;2023-03-01T05:09:20;-1.60;99.90
16625;DHT22;8426;48.496;9.098;2023-03-01T05:14:24;-1.60;99.90
16625;DHT22;8426;48.496;9.098;2023-03-01T05:19:28;-1.50;99.90
16625;DHT22;8426;48.496;9.098;2023-03-01T05:24:34;-1.50;99.90
16625;DHT22;8426;48.496;9.098;2023-03-01T05:29:38;-1.50;99.90
16625;DHT22;8426;48.496;9.098;2023-03-01T05:34:44;-1.50;99.90
16625;DHT22;8426;48.496;9.098;2023-03-01T05:39:48;-1.50;99.90
16625;DHT22;8426;48.496;9.098;2023-03-01T05:44:52;-1.50;99.90
16625;DHT22;8426;48.496;9.098;2023-03-01T05:49:57;-1.50;99.90
16625;DHT22;8426;48.496;9.098;2023-03-01T05:55:00;-1.50;99.90
16625;DHT22;8426;48.496;9.098;2023-03-01T06:00:04;-1.50;99.90
16625;DHT22;8426;48.496;9.098;2023-03-01T06:05:12;-1.50;99.90
16625;DHT22;8426;48.496;9.098;2023-03-01T06:10:16;-1.40;99.90
16625;DHT22;8426;48.496;9.098;2023-03-01T06:15:22;-1.40;99.90
16625;DHT22;8426;48.496;9.098;2023-03-01T06:20:29;-1.30;99.90
16625;DHT22;8426;48.496;9.098;2023-03-01T06:25:33;-1.30;99.90
16625;DHT22;8426;48.496;9.098;2023-03-01T06:30:37;-1.30;99.90
16625;DHT22;8426;48.496;9.098;2023-03-01T06:35:42;-1.20;99.90
16625;DHT22;8426;48.496;9.098;2023-03-01T06:40:52;-1.10;99.90
16625;DHT22;8426;48.496;9.098;2023-03-01T06:45:58;-1.00;99.90
16625;DHT22;8426;48.496;9.098;2023-03-01T06:51:04;-0.90;99.90
16625;DHT22;8426;48.496;9.098;2023-03-01T06:56:07;-0.90;99.90
16625;DHT22;8426;48.496;9.098;2023-03-01T07:01:14;-0.30;99.90
16625;DHT22;8426;48.496;9.098;2023-03-01T07:06:22;0.50;99.90
16625;DHT22;8426;48.496;9.098;2023-03-01T07:11:25;1.30;99.90
16625;DHT22;8426;48.496;9.098;2023-03-01T07:16:29;1.90;99.90
16625;DHT22;8426;48.496;9.098;2023-03-01T07:21:34;2.70;99.90
16625;DHT22;8426;48.496;9.098;2023-03-01T07:26:37;3.10;99.90
16625;DHT22;8426;48.496;9.098;2023-03-01T07:31:44;2.90;99.90
16625;DHT22;8426;48.496;9.098;2023-03-01T07:36:49;2.90;99.90
16625;DHT22;8426;48.496;9.098;2023-03-01T07:41:52;3.10;99.90
16625;DHT22;8426;48.496;9.098;2023-03-01T07:46:56;3.60;99.90
16625;DHT22;8426;48.496;9.098;2023-03-01T07:52:01;3.90;99.90
16625;DHT22;8426;48.496;9.098;2023-03-01T07:57:04;3.20;99.90
16625;DHT22;8426;48.496;9.098;2023-03-01T08:02:12;4.60;99.90
16625;DHT22;8426;48.496;9.098;2023-03-01T08:07:21;5.00;99.90
16625;DHT22;8426;48.496;9.098;2023-03-01T08:12:25;4.00;99.90
16625;DHT22;8426;48.496;9.098;2023-03-01T08:17:31;3.00;99.90
16625;DHT22;8426;48.496;9.098;2023-03-01T08:22:35;2.30;99.90
16625;DHT22;8426;48.496;9.098;2023-03-01T08:27:44;1.80;99.90
16625;DHT22;8426;48.496;9.098;2023-03-01T08:32:50;1.80;99.90
16625;DHT22;8426;48.496;9.098;2023-03-01T08:37:58;1.90;99.90
16625;DHT22;8426;48.496;9.098;2023-03-01T08:43:01;3.20;99.90
16625;DHT22;8426;48.496;9.098;2023-03-01T08:48:05;3.70;99.90
16625;DHT22;8426;48.496;9.098;2023-03-01T08:53:13;4.60;99.90
16625;DHT22;8426;48.496;9.098;2023-03-01T08:58:17;5.30;99.90
16625;DHT22;8426;48.496;9.098;2023-03-01T09:03:21;6.30;99.90
16625;DHT22;8426;48.496;9.098;2023-03-01T09:08:28;6.80;99.90
16625;DHT22;8426;48.496;9.098;2023-03-01T09:13:33;6.00;99.90
16625;DHT22;8426;48.496;9.098;2023-03-01T09:18:44;6.50;99.90
16625;DHT22;8426;48.496;9.098;2023-03-01T09:23:50;6.90;99.90
16625;DHT22;8426;48.496;9.098;2023-03-01T09:28:55;6.80;99.90
16625;DHT22;8426;48.496;9.098;2023-03-01T09:33:59;6.10;99.90
16625;DHT22;8426;48.496;9.098;2023-03-01T09:39:04;6.60;99.90
16625;DHT22;8426;48.496;9.098;2023-03-01T09:49:43;7.60;99.90
16625;DHT22;8426;48.496;9.098;2023-03-01T09:54:54;6.60;99.90
16625;DHT22;8426;48.496;9.098;2023-03-01T10:00:16;5.70;99.90
16625;DHT22;8426;48.496;9.098;2023-03-01T10:05:44;6.10;99.90
16625;DHT22;8426;48.496;9.098;2023-03-01T10:10:52;6.70;99.90
16625;DHT22;8426;48.496;9.098;2023-03-01T10:16:00;6.30;99.90
16625;DHT22;8426;48.496;9.098;2023-03-01T10:21:13;6.10;99.90
16625;DHT22;8426;48.496;9.098;2023-03-01T10:26:54;5.30;99.90
16625;DHT22;8426;48.496;9.098;2023-03-01T10:31:58;5.20;99.90
16625;DHT22;8426;48.496;9.098;2023-03-01T10:37:11;5.50;99.90
16625;DHT22;8426;48.496;9.098;2023-03-01T10:42:26;5.60;99.90
16625;DHT22;8426;48.496;9.098;2023-03-01T10:47:30;5.30;99.90
16625;DHT22;8426;48.496;9.098;2023-03-01T10:52:36;5.50;99.90
16625;DHT22;8426;48.496;9.098;2023-03-01T10:57:41;5.40;99.90
16625;DHT22;8426;48.496;9.098;2023-03-01T11:02:48;5.70;99.90
16625;DHT22;8426;48.496;9.098;2023-03-01T11:07:53;5.90;99.90
16625;DHT22;8426;48.496;9.098;2023-03-01T11:13:15;6.00;99.90
16625;DHT22;8426;48.496;9.098;2023-03-01T11:18:22;6.00;99.90
16625;DHT22;8426;48.496;9.098;2023-03-01T11:23:47;6.20;99.90
16625;DHT22;8426;48.496;9.098;2023-03-01T11:28:56;6.30;99.90
16625;DHT22;8426;48.496;9.098;2023-03-01T11:34:07;6.70;99.90
16625;DHT22;8426;48.496;9.098;2023-03-01T11:39:19;7.00;99.90
16625;DHT22;8426;48.496;9.098;2023-03-01T11:44:29;6.50;99.90
16625;DHT22;8426;48.496;9.098;2023-03-01T11:49:54;6.70;99.90
16625;DHT22;8426;48.496;9.098;2023-03-01T11:55:19;6.70;99.90
16625;DHT22;8426;48.496;9.098;2023-03-01T12:00:41;6.80;99.90
16625;DHT22;8426;48.496;9.098;2023-03-01T12:11:41;6.80;99.90
16625;DHT22;8426;48.496;9.098;2023-03-01T12:22:35;7.20;99.90
16625;DHT22;8426;48.496;9.098;2023-03-01T12:28:16;7.10;99.90
16625;DHT22;8426;48.496;9.098;2023-03-01T12:33:36;7.10;99.90
16625;DHT22;8426;48.496;9.098;2023-03-01T12:38:50;7.40;99.90
16625;DHT22;8426;48.496;9.098;2023-03-01T12:44:04;7.40;99.90
16625;DHT22;8426;48.496;9.098;2023-03-01T12:49:14;7.20;99.90
16625;DHT22;8426;48.496;9.098;2023-03-01T12:54:26;6.90;99.90
16625;DHT22;8426;48.496;9.098;2023-03-01T12:59:36;7.10;99.90
16625;DHT22;8426;48.496;9.098;2023-03-01T13:05:13;7.30;99.90
16625;DHT22;8426;48.496;9.098;2023-03-01T13:10:29;7.40;99.90
16625;DHT22;8426;48.496;9.098;2023-03-01T13:15:38;7.40;99.90
16625;DHT22;8426;48.496;9.098;2023-03-01T13:20:48;7.30;99.90
16625;DHT22;8426;48.496;9.098;2023-03-01T13:26:07;7.40;99.90
16625;DHT22;8426;48.496;9.098;2023-03-01T13:37:17;7.50;99.90
16625;DHT22;8426;48.496;9.098;2023-03-01T13:42:40;7.40;99.90
16625;DHT22;8426;48.496;9.098;2023-03-01T13:47:54;7.50;99.90
16625;DHT22;8426;48.496;9.098;2023-03-01T13:53:04;7.40;99.90
16625;DHT22;8426;48.496;9.098;2023-03-01T13:58:23;7.70;99.90
16625;DHT22;8426;48.496;9.098;2023-03-01T14:03:28;7.60;99.90
16625;DHT22;8426;48.496;9.098;2023-03-01T14:08:35;7.50;99.90
16625;DHT22;8426;48.496;9.098;2023-03-01T14:13:52;7.20;99.90
16625;DHT22;8426;48.496;9.098;2023-03-01T14:19:07;7.30;99.90
16625;DHT22;8426;48.496;9.098;2023-03-01T14:24:21;7.30;99.90
16625;DHT22;8426;48.496;9.098;2023-03-01T14:29:26;7.50;99.90
16625;DHT22;8426;48.496;9.098;2023-03-01T14:34:30;7.50;99.90
16625;DHT22;8426;48.496;9.098;2023-03-01T14:39:34;7.30;99.90
16625;DHT22;8426;48.496;9.098;2023-03-01T14:44:38;7.40;99.90
16625;DHT22;8426;48.496;9.098;2023-03-01T14:49:43;7.40;99.90
16625;DHT22;8426;48.496;9.098;2023-03-01T14:54:50;7.30;99.90
16625;DHT22;8426;48.496;9.098;2023-03-01T14:59:55;7.20;99.90
16625;DHT22;8426;48.496;9.098;2023-03-01T15:05:27;7.20;99.90
16625;DHT22;8426;48.496;9.098;2023-03-01T15:10:35;7.10;99.90
16625;DHT22;8426;48.496;9.098;2023-03-01T15:15:41;7.00;99.90
16625;DHT22;8426;48.496;9.098;2023-03-01T15:20:46;7.00;99.90
16625;DHT22;8426;48.496;9.098;2023-03-01T15:25:55;7.00;99.90
16625;DHT22;8426;48.496;9.098;2023-03-01T15:31:19;6.90;99.90
16625;DHT22;8426;48.496;9.098;2023-03-01T15:36:49;6.90;99.90
16625;DHT22;8426;48.496;9.098;2023-03-01T15:41:55;6.80;99.90
16625;DHT22;8426;48.496;9.098;2023-03-01T15:46:59;6.70;99.90
16625;DHT22;8426;48.496;9.098;2023-03-01T15:52:04;6.50;99.90
16625;DHT22;8426;48.496;9.098;2023-03-01T15:57:12;6.40;99.90
16625;DHT22;8426;48.496;9.098;2023-03-01T16:02:18;6.40;99.90
16625;DHT22;8426;48.496;9.098;2023-03-01T16:07:23;6.40;99.90
16625;DHT22;8426;48.496;9.098;2023-03-01T16:12:31;6.20;99.90
16625;DHT22;8426;48.496;9.098;2023-03-01T16:17:34;6.00;99.90
16625;DHT22;8426;48.496;9.098;2023-03-01T16:22:37;5.90;99.90
16625;DHT22;8426;48.496;9.098;2023-03-01T16:27:43;5.80;99.90
16625;DHT22;8426;48.496;9.098;2023-03-01T16:32:50;5.60;99.90
16625;DHT22;8426;48.496;9.098;2023-03-01T16:37:53;5.50;99.90
16625;DHT22;8426;48.496;9.098;2023-03-01T16:43:00;5.40;99.90
16625;DHT22;8426;48.496;9.098;2023-03-01T16:48:04;5.30;99.90
16625;DHT22;8426;48.496;9.098;2023-03-01T16:53:13;5.20;99.90
16625;DHT22;8426;48.496;9.098;2023-03-01T16:58:17;5.10;99.90
16625;DHT22;8426;48.496;9.098;2023-03-01T17:03:21;4.90;99.90
16625;DHT22;8426;48.496;9.098;2023-03-01T17:08:25;4.70;99.90
16625;DHT22;8426;48.496;9.098;2023-03-01T17:13:30;4.50;99.90
16625;DHT22;8426;48.496;9.098;2023-03-01T17:18:34;4.40;99.90
16625;DHT22;8426;48.496;9.098;2023-03-01T17:23:42;4.40;99.90
16625;DHT22;8426;48.496;9.098;2023-03-01T17:28:48;4.30;99.90
16625;DHT22;8426;48.496;9.098;2023-03-01T17:33:53;4.20;99.90
16625;DHT22;8426;48.496;9.098;2023-03-01T17:39:00;4.20;99.90
16625;DHT22;8426;48.496;9.098;2023-03-01T17:44:05;4.00;99.90
16625;DHT22;8426;48.496;9.098;2023-03-01T17:49:08;3.80;99.90
16625;DHT22;8426;48.496;9.098;2023-03-01T17:54:11;3.80;99.90
16625;DHT22;8426;48.496;9.098;2023-03-01T17:59:19;4.00;99.90
16625;DHT22;8426;48.496;9.098;2023-03-01T18:04:22;4.00;99.90
16625;DHT22;8426;48.496;9.098;2023-03-01T18:09:27;4.10;99.90
16625;DHT22;8426;48.496;9.098;2023-03-01T18:14:34;4.10;99.90
16625;DHT22;8426;48.496;9.098;2023-03-01T18:19:37;4.00;99.90
16625;DHT22;8426;48.496;9.098;2023-03-01T18:24:42;4.00;99.90
16625;DHT22;8426;48.496;9.098;2023-03-01T18:29:47;4.00;99.90
16625;DHT22;8426;48.496;9.098;2023-03-01T18:34:50;3.90;99.90
16625;DHT22;8426;48.496;9.098;2023-03-01T18:39:59;3.70;99.90
16625;DHT22;8426;48.496;9.098;2023-03-01T18:45:08;3.60;99.90
16625;DHT22;8426;48.496;9.098;2023-03-01T18:50:11;3.50;99.90
16625;DHT22;8426;48.496;9.098;2023-03-01T18:55:14;3.50;99.90
16625;DHT22;8426;48.496;9.098;2023-03-01T19:00:22;3.40;99.90
16625;DHT22;8426;48.496;9.098;2023-03-01T19:05:26;3.40;99.90
16625;DHT22;8426;48.496;9.098;2023-03-01T19:10:31;3.40;99.90
16625;DHT22;8426;48.496;9.098;2023-03-01T19:15:37;3.30;99.90
16625;DHT22;8426;48.496;9.098;2023-03-01T19:20:47;3.20;99.90
16625;DHT22;8426;48.496;9.098;2023-03-01T19:25:58;3.10;99.90
16625;DHT22;8426;48.496;9.098;2023-03-01T19:31:04;3.00;99.90
16625;DHT22;8426;48.496;9.098;2023-03-01T19:36:09;2.90;99.90
16625;DHT22;8426;48.496;9.098;2023-03-01T19:41:16;2.80;99.90
16625;DHT22;8426;48.496;9.098;2023-03-01T19:46:21;2.70;99.90
16625;DHT22;8426;48.496;9.098;2023-03-01T19:51:25;2.60;99.90
16625;DHT22;8426;48.496;9.098;2023-03-01T19:56:28;2.60;99.90
16625;DHT22;8426;48.496;9.098;2023-03-01T20:01:34;2.60;99.90
16625;DHT22;8426;48.496;9.098;2023-03-01T20:06:44;2.70;99.90
16625;DHT22;8426;48.496;9.098;2023-03-01T20:11:48;2.70;99.90
16625;DHT22;8426;48.496;9.098;2023-03-01T20:16:53;2.60;99.90
16625;DHT22;8426;48.496;9.098;2023-03-01T20:21:56;2.50;99.90
16625;DHT22;8426;48.496;9.098;2023-03-01T20:27:00;2.40;99.90
16625;DHT22;8426;48.496;9.098;2023-03-01T20:32:15;2.30;99.90
16625;DHT22;8426;48.496;9.098;2023-03-01T20:37:19;2.20;99.90
16625;DHT22;8426;48.496;9.098;2023-03-01T20:42:23;2.00;99.90
16625;DHT22;8426;48.496;9.098;2023-03-01T20:47:28;1.90;99.90
16625;DHT22;8426;48.496;9.098;2023-03-01T20:52:31;2.00;99.90
16625;DHT22;8426;48.496;9.098;2023-03-01T20:57:47;2.00;99.90
16625;DHT22;8426;48.496;9.098;2023-03-01T21:02:52;1.90;99.90
16625;DHT22;8426;48.496;9.098;2023-03-01T21:07:56;1.80;99.90
16625;DHT22;8426;48.496;9.098;2023-03-01T21:13:02;1.60;99.90
16625;DHT22;8426;48.496;9.098;2023-03-01T21:18:06;1.40;99.90
16625;DHT22;8426;48.496;9.098;2023-03-01T21:23:10;1.30;99.90
16625;DHT22;8426;48.496;9.098;2023-03-01T21:28:14;1.20;99.90
16625;DHT22;8426;48.496;9.098;2023-03-01T21:33:19;1.10;99.90
16625;DHT22;8426;48.496;9.098;2023-03-01T21:38:23;0.90;99.90
16625;DHT22;8426;48.496;9.098;2023-03-01T21:43:26;0.80;99.90
16625;DHT22;8426;48.496;9.098;2023-03-01T21:48:32;0.70;99.90
16625;DHT22;8426;48.496;9.098;2023-03-01T21:53:35;0.50;99.90
16625;DHT22;8426;48.496;9.098;2023-03-01T21:58:39;0.40;99.90
16625;DHT22;8426;48.496;9.098;2023-03-01T22:03:44;0.30;99.90
16625;DHT22;8426;48.496;9.098;2023-03-01T22:08:49;0.30;99.90
16625;DHT22;8426;48.496;9.098;2023-03-01T22:13:55;0.30;99.90
16625;DHT22;8426;48.496;9.098;2023-03-01T22:19:00;0.30;99.90
16625;DHT22;8426;48.496;9.098;2023-03-01T22:24:04;0.10;99.90
16625;DHT22;8426;48.496;9.098;2023-03-01T22:29:10;-0.10;99.90
16625;DHT22;8426;48.496;9.098;2023-03-01T22:34:15;-0.30;99.90
16625;DHT22;8426;48.496;9.098;2023-03-01T22:39:20;-0.40;99.90
16625;DHT22;8426;48.496;9.098;2023-03-01T22:44:23;-0.30;99.90
16625;DHT22;8426;48.496;9.098;2023-03-01T22:49:28;-0.30;99.90
16625;DHT22;8426;48.496;9.098;2023-03-01T22:54:31;-0.40;99.90
16625;DHT22;8426;48.496;9.098;2023-03-01T22:59:34;-0.50;99.90
16625;DHT22;8426;48.496;9.098;2023-03-01T23:04:39;-0.50;99.90
16625;DHT22;8426;48.496;9.098;2023-03-01T23:09:44;-0.50;99.90
16625;DHT22;8426;48.496;9.098;2023-03-01T23:14:52;-0.50;99.90
16625;DHT22;8426;48.496;9.098;2023-03-01T23:19:58;-0.50;99.90
16625;DHT22;8426;48.496;9.098;2023-03-01T23:25:01;-0.60;99.90
16625;DHT22;8426;48.496;9.098;2023-03-01T23:30:06;-0.70;99.90
16625;DHT22;8426;48.496;9.098;2023-03-01T23:35:11;-0.90;99.90
16625;DHT22;8426;48.496;9.098;2023-03-01T23:40:14;-1.20;99.90
16625;DHT22;8426;48.496;9.098;2023-03-01T23:45:17;-1.40;99.90
16625;DHT22;8426;48.496;9.098;2023-03-01T23:50:22;-1.40;99.90
16625;DHT22;8426;48.496;9.098;2023-03-01T23:55:28;-1.50;99.90
